Briefing drone pour Tournon-sur-rhone

Rechercher une autre localisation

Conditions de vol :


Nous sommes le : Samedi 20 avril 2024
Il est 00:37 UTC (02:37 LT)

Lever de soleil : 04:19 UTC (06:19 LT)
Coucher de soleil : 18:59 UTC (20:59 LT)

Météo

L'essentiel des conditions de vol

VIGILANCE MÉTÉO FRANCE - Ardèche (07)
Pas de vigilances particulieres
CARTE TEMSI
CARTES DES FRONTS
METAR de LFLU
LFLU 191800Z AUTO 02006KT CAVOK 14/00 Q1017

Date d'émission: 19/04/2024
Heure d'émission: 18:00 UTC
Vent: 020° pour 6 KT (11 km/h)
Visibilité horizontale: > 10 km
Plafond : Plafond et visibilité OK (CAVOK)
Température: 14 °C
Point de rosée: 0 °C
Humidité: 38%
Pression (QNH): 1017 hPa
Prévision 24h pour Valence (10 km)
Vent : 5° pour 9 KT (31 km/h)
Temperature Maxi: 6 °C
Temperature Min: 6 °C
Humidité : 71%
Condition : Ciel dégagé


WEBCAM POUR TOURNON-SUR-RHONE

Réglementation

Voler en sécurité

CARTES AERONAUTIQUE 1/500.000
CARTE AZBA (Reseau basse altitude)
CARTES VAC (LFLU)
SUP AIP




Chargement des AIP...
NOTAM (TOURNON-SUR-RHONE + Terrain à proximité / FIR )




Chargement des NOTAMS...
CONTACT PREFECTURE 07
Ardèche (07) : [email protected]


Avertissement : Les données mises à disposition sont indicatives. Oxygène Drone ne pourra être tenu responsable de dégâts causés aux biens et aux personnes.